In Rescue
 
Open Full Screen Window  High Contrast Mode
Wind Gusting 16 knots
08
May 25, 2022 10:38 PM EDT
Present Weather: Rain
Weather Information
Wind Direction
  130 °
Wind Speed
  08 kt (9 mph)
Wind Gust
  16 kt (18 mph)
Altimeter
29.85 in
Visibility
7 SM
Temperature
19° C
66° F
Dewpoint
17° C
63° F
Humidity
88%
Sky Condition
Overcast @ 7,000 ft
Broken @ 4,100 ft
Scattered @ 1,300 ft
VFR

METAR KFFX 260238Z AUTO 13008G16KT 7SM RA SCT013 BKN041 OVC070 19/17 A2985 RMK AO2 T01870174

FAA Disclaimer: The data displayed is for advisory purposes only and is not to be used for flight planning or operations.